sensor_id;sensor_type;location;lat;lon;timestamp;pressure;altitude;pressure_sealevel;temperature;humidity
63097;BME280;49185;42.320;23.198;2023-04-04T00:00:43;93351.50;;;7.20;83.25
63097;BME280;49185;42.320;23.198;2023-04-04T00:03:09;93384.69;;;6.80;85.49
63097;BME280;49185;42.320;23.198;2023-04-04T00:05:34;93426.81;;;6.50;87.76
63097;BME280;49185;42.320;23.198;2023-04-04T00:08:01;93456.50;;;6.67;88.50
63097;BME280;49185;42.320;23.198;2023-04-04T00:10:26;93451.69;;;6.54;90.89
63097;BME280;49185;42.320;23.198;2023-04-04T00:12:52;93454.78;;;6.45;92.27
63097;BME280;49185;42.320;23.198;2023-04-04T00:15:17;93482.66;;;6.26;91.32
63097;BME280;49185;42.320;23.198;2023-04-04T00:17:43;93476.44;;;6.80;85.95
63097;BME280;49185;42.320;23.198;2023-04-04T00:20:08;93496.06;;;6.57;88.88
63097;BME280;49185;42.320;23.198;2023-04-04T00:22:34;93491.78;;;6.45;90.58
63097;BME280;49185;42.320;23.198;2023-04-04T00:24:59;93496.66;;;6.26;90.62
63097;BME280;49185;42.320;23.198;2023-04-04T00:27:25;93496.06;;;6.19;91.24
63097;BME280;49185;42.320;23.198;2023-04-04T00:29:50;93491.69;;;6.35;91.20
63097;BME280;49185;42.320;23.198;2023-04-04T00:32:16;93483.44;;;6.26;90.63
63097;BME280;49185;42.320;23.198;2023-04-04T00:34:41;93490.00;;;6.19;91.89
63097;BME280;49185;42.320;23.198;2023-04-04T00:37:06;93471.47;;;6.14;92.55
63097;BME280;49185;42.320;23.198;2023-04-04T00:39:32;93471.41;;;6.08;92.48
63097;BME280;49185;42.320;23.198;2023-04-04T00:41:58;93461.63;;;6.04;92.17
63097;BME280;49185;42.320;23.198;2023-04-04T00:44:23;93456.59;;;6.02;92.48
63097;BME280;49185;42.320;23.198;2023-04-04T00:46:51;93461.06;;;6.02;92.82
63097;BME280;49185;42.320;23.198;2023-04-04T00:49:16;93459.78;;;6.04;92.38
63097;BME280;49185;42.320;23.198;2023-04-04T00:51:41;93453.69;;;6.04;92.27
63097;BME280;49185;42.320;23.198;2023-04-04T00:54:07;93444.97;;;6.03;93.28
63097;BME280;49185;42.320;23.198;2023-04-04T00:56:36;93429.66;;;6.00;92.93
63097;BME280;49185;42.320;23.198;2023-04-04T00:59:02;93421.44;;;5.97;91.70
63097;BME280;49185;42.320;23.198;2023-04-04T01:01:27;93423.47;;;5.95;92.01
63097;BME280;49185;42.320;23.198;2023-04-04T01:03:53;93423.56;;;6.00;91.77
63097;BME280;49185;42.320;23.198;2023-04-04T01:06:19;93412.53;;;5.76;93.85
63097;BME280;49185;42.320;23.198;2023-04-04T01:08:45;93411.50;;;5.82;93.94
63097;BME280;49185;42.320;23.198;2023-04-04T01:11:11;93405.09;;;5.73;94.63
63097;BME280;49185;42.320;23.198;2023-04-04T01:13:37;93404.06;;;5.46;95.82
63097;BME280;49185;42.320;23.198;2023-04-04T01:16:02;93403.19;;;5.36;97.02
63097;BME280;49185;42.320;23.198;2023-04-04T01:18:30;93401.44;;;5.46;97.13
63097;BME280;49185;42.320;23.198;2023-04-04T01:21:08;93403.28;;;5.46;96.79
63097;BME280;49185;42.320;23.198;2023-04-04T01:23:58;93400.84;;;5.39;96.35
63097;BME280;49185;42.320;23.198;2023-04-04T01:26:23;93394.41;;;5.57;95.53
63097;BME280;49185;42.320;23.198;2023-04-04T01:28:49;93384.34;;;5.54;95.32
63097;BME280;49185;42.320;23.198;2023-04-04T01:31:22;93389.31;;;5.45;96.46
63097;BME280;49185;42.320;23.198;2023-04-04T01:39:26;93401.13;;;5.43;96.02
63097;BME280;49185;42.320;23.198;2023-04-04T01:41:53;93398.59;;;5.53;96.06
63097;BME280;49185;42.320;23.198;2023-04-04T01:44:20;93403.16;;;5.63;95.34
63097;BME280;49185;42.320;23.198;2023-04-04T01:46:46;93384.13;;;5.88;95.06
63097;BME280;49185;42.320;23.198;2023-04-04T01:49:11;93376.56;;;6.02;92.87
63097;BME280;49185;42.320;23.198;2023-04-04T01:51:36;93388.44;;;5.67;93.98
63097;BME280;49185;42.320;23.198;2023-04-04T01:54:02;93401.53;;;5.89;94.37
63097;BME280;49185;42.320;23.198;2023-04-04T01:56:27;93388.94;;;6.29;92.10
63097;BME280;49185;42.320;23.198;2023-04-04T01:58:53;93383.38;;;6.30;90.34
63097;BME280;49185;42.320;23.198;2023-04-04T02:01:18;93373.22;;;6.12;91.14
63097;BME280;49185;42.320;23.198;2023-04-04T02:03:44;93367.66;;;6.08;91.92
63097;BME280;49185;42.320;23.198;2023-04-04T02:06:09;93365.94;;;6.29;91.37
63097;BME280;49185;42.320;23.198;2023-04-04T02:08:35;93359.78;;;6.13;91.42
63097;BME280;49185;42.320;23.198;2023-04-04T02:11:00;93371.19;;;6.24;90.79
63097;BME280;49185;42.320;23.198;2023-04-04T02:13:26;93388.81;;;5.81;93.24
63097;BME280;49185;42.320;23.198;2023-04-04T02:15:51;93382.34;;;5.66;94.16
63097;BME280;49185;42.320;23.198;2023-04-04T02:18:17;93371.38;;;6.12;92.88
63097;BME280;49185;42.320;23.198;2023-04-04T02:20:42;93373.31;;;5.95;92.14
63097;BME280;49185;42.320;23.198;2023-04-04T02:23:07;93353.97;;;6.11;92.50
63097;BME280;49185;42.320;23.198;2023-04-04T02:25:33;93366.69;;;6.24;91.05
63097;BME280;49185;42.320;23.198;2023-04-04T02:27:58;93366.41;;;6.21;91.31
63097;BME280;49185;42.320;23.198;2023-04-04T02:30:24;93368.75;;;6.17;91.90
63097;BME280;49185;42.320;23.198;2023-04-04T02:32:49;93380.94;;;6.18;92.31
63097;BME280;49185;42.320;23.198;2023-04-04T02:35:15;93379.59;;;5.83;93.01
63097;BME280;49185;42.320;23.198;2023-04-04T02:37:40;93372.06;;;5.38;95.99
63097;BME280;49185;42.320;23.198;2023-04-04T02:40:08;93357.81;;;5.33;96.89
63097;BME280;49185;42.320;23.198;2023-04-04T02:42:34;93352.28;;;5.67;96.03
63097;BME280;49185;42.320;23.198;2023-04-04T02:44:59;93351.16;;;5.31;97.03
63097;BME280;49185;42.320;23.198;2023-04-04T02:47:24;93349.34;;;5.64;97.27
63097;BME280;49185;42.320;23.198;2023-04-04T02:49:50;93350.78;;;5.44;96.54
63097;BME280;49185;42.320;23.198;2023-04-04T02:52:15;93355.72;;;5.08;99.19
63097;BME280;49185;42.320;23.198;2023-04-04T02:54:41;93355.50;;;6.07;94.20
63097;BME280;49185;42.320;23.198;2023-04-04T02:57:06;93369.13;;;5.34;96.95
63097;BME280;49185;42.320;23.198;2023-04-04T02:59:31;93377.72;;;4.97;99.09
63097;BME280;49185;42.320;23.198;2023-04-04T03:01:57;93373.63;;;4.84;99.80
63097;BME280;49185;42.320;23.198;2023-04-04T03:04:22;93366.25;;;5.36;99.64
63097;BME280;49185;42.320;23.198;2023-04-04T03:06:47;93370.53;;;5.14;97.90
63097;BME280;49185;42.320;23.198;2023-04-04T03:09:13;93379.63;;;4.80;100.00
63097;BME280;49185;42.320;23.198;2023-04-04T03:11:39;93373.31;;;4.81;100.00
63097;BME280;49185;42.320;23.198;2023-04-04T03:14:04;93378.16;;;4.67;100.00
63097;BME280;49185;42.320;23.198;2023-04-04T03:16:30;93384.28;;;4.50;100.00
63097;BME280;49185;42.320;23.198;2023-04-04T03:18:55;93375.59;;;4.50;100.00
63097;BME280;49185;42.320;23.198;2023-04-04T03:21:21;93377.34;;;4.44;100.00
63097;BME280;49185;42.320;23.198;2023-04-04T03:23:46;93383.38;;;4.40;100.00
63097;BME280;49185;42.320;23.198;2023-04-04T03:26:12;93389.00;;;4.48;100.00
63097;BME280;49185;42.320;23.198;2023-04-04T03:28:37;93388.56;;;4.34;100.00
63097;BME280;49185;42.320;23.198;2023-04-04T03:31:04;93395.66;;;4.34;100.00
63097;BME280;49185;42.320;23.198;2023-04-04T03:33:29;93395.91;;;4.32;100.00
63097;BME280;49185;42.320;23.198;2023-04-04T03:35:55;93402.44;;;4.30;100.00
63097;BME280;49185;42.320;23.198;2023-04-04T03:38:20;93389.34;;;5.23;100.00
63097;BME280;49185;42.320;23.198;2023-04-04T03:40:45;93394.34;;;4.98;100.00
63097;BME280;49185;42.320;23.198;2023-04-04T03:43:11;93402.19;;;4.70;100.00
63097;BME280;49185;42.320;23.198;2023-04-04T03:45:36;93398.00;;;4.52;100.00
63097;BME280;49185;42.320;23.198;2023-04-04T03:48:02;93401.69;;;4.73;100.00
63097;BME280;49185;42.320;23.198;2023-04-04T03:50:28;93400.84;;;5.12;100.00
63097;BME280;49185;42.320;23.198;2023-04-04T03:52:53;93409.53;;;4.68;100.00
63097;BME280;49185;42.320;23.198;2023-04-04T03:55:19;93406.31;;;4.44;100.00
63097;BME280;49185;42.320;23.198;2023-04-04T03:57:44;93403.81;;;4.32;100.00
63097;BME280;49185;42.320;23.198;2023-04-04T04:00:10;93407.69;;;4.30;100.00
63097;BME280;49185;42.320;23.198;2023-04-04T04:02:36;93413.50;;;4.71;100.00
63097;BME280;49185;42.320;23.198;2023-04-04T04:05:01;93402.88;;;4.61;100.00
63097;BME280;49185;42.320;23.198;2023-04-04T04:07:26;93410.94;;;4.76;100.00
63097;BME280;49185;42.320;23.198;2023-04-04T04:09:52;93414.63;;;4.75;100.00
63097;BME280;49185;42.320;23.198;2023-04-04T04:12:17;93416.97;;;4.32;100.00
63097;BME280;49185;42.320;23.198;2023-04-04T04:14:43;93423.94;;;4.05;100.00
63097;BME280;49185;42.320;23.198;2023-04-04T04:17:08;93428.72;;;4.08;100.00
63097;BME280;49185;42.320;23.198;2023-04-04T04:19:33;93434.78;;;4.08;100.00
63097;BME280;49185;42.320;23.198;2023-04-04T04:21:59;93436.53;;;4.03;100.00
63097;BME280;49185;42.320;23.198;2023-04-04T04:24:24;93440.91;;;3.97;100.00
63097;BME280;49185;42.320;23.198;2023-04-04T04:26:50;93433.97;;;3.91;100.00
63097;BME280;49185;42.320;23.198;2023-04-04T04:29:15;93447.75;;;3.98;100.00
63097;BME280;49185;42.320;23.198;2023-04-04T04:31:40;93448.88;;;4.19;100.00
63097;BME280;49185;42.320;23.198;2023-04-04T04:34:06;93453.34;;;4.18;100.00
63097;BME280;49185;42.320;23.198;2023-04-04T04:36:32;93454.06;;;4.14;100.00
63097;BME280;49185;42.320;23.198;2023-04-04T04:38:57;93461.09;;;4.08;100.00
63097;BME280;49185;42.320;23.198;2023-04-04T04:41:23;93455.28;;;4.06;100.00
63097;BME280;49185;42.320;23.198;2023-04-04T04:43:48;93460.69;;;4.16;100.00
63097;BME280;49185;42.320;23.198;2023-04-04T04:46:13;93463.31;;;4.33;100.00
63097;BME280;49185;42.320;23.198;2023-04-04T04:48:39;93473.97;;;4.61;100.00
63097;BME280;49185;42.320;23.198;2023-04-04T04:51:04;93462.28;;;4.95;100.00
63097;BME280;49185;42.320;23.198;2023-04-04T04:53:30;93471.81;;;4.97;100.00
63097;BME280;49185;42.320;23.198;2023-04-04T04:55:55;93467.84;;;5.65;100.00
63097;BME280;49185;42.320;23.198;2023-04-04T04:58:21;93466.91;;;6.04;98.93
63097;BME280;49185;42.320;23.198;2023-04-04T05:00:46;93468.13;;;5.96;95.98
63097;BME280;49185;42.320;23.198;2023-04-04T05:03:12;93468.81;;;6.14;96.21
63097;BME280;49185;42.320;23.198;2023-04-04T05:05:37;93472.16;;;6.36;94.47
63097;BME280;49185;42.320;23.198;2023-04-04T05:08:03;93466.59;;;6.75;93.12
63097;BME280;49185;42.320;23.198;2023-04-04T05:10:29;93463.00;;;6.92;91.33
63097;BME280;49185;42.320;23.198;2023-04-04T05:12:55;93466.59;;;7.28;91.39
63097;BME280;49185;42.320;23.198;2023-04-04T05:15:21;93468.34;;;7.86;84.03
63097;BME280;49185;42.320;23.198;2023-04-04T05:17:46;93464.88;;;7.75;86.37
63097;BME280;49185;42.320;23.198;2023-04-04T05:20:12;93467.56;;;7.90;84.71
63097;BME280;49185;42.320;23.198;2023-04-04T05:22:44;93470.44;;;7.84;86.23
63097;BME280;49185;42.320;23.198;2023-04-04T05:25:12;93466.50;;;7.81;86.95
63097;BME280;49185;42.320;23.198;2023-04-04T05:27:40;93465.66;;;7.60;87.63
63097;BME280;49185;42.320;23.198;2023-04-04T05:30:06;93459.69;;;7.22;89.41
63097;BME280;49185;42.320;23.198;2023-04-04T05:32:32;93470.38;;;6.90;90.64
63097;BME280;49185;42.320;23.198;2023-04-04T05:34:57;93476.19;;;6.87;90.92
63097;BME280;49185;42.320;23.198;2023-04-04T05:37:23;93481.78;;;7.58;90.43
63097;BME280;49185;42.320;23.198;2023-04-04T05:39:48;93472.94;;;10.72;77.56
63097;BME280;49185;42.320;23.198;2023-04-04T05:42:14;93463.66;;;14.50;61.83
63097;BME280;49185;42.320;23.198;2023-04-04T05:44:39;93466.28;;;16.50;51.84
63097;BME280;49185;42.320;23.198;2023-04-04T05:47:05;93473.03;;;17.94;47.72
63097;BME280;49185;42.320;23.198;2023-04-04T05:49:30;93473.69;;;16.18;52.79
63097;BME280;49185;42.320;23.198;2023-04-04T05:51:55;93473.38;;;16.37;51.49
63097;BME280;49185;42.320;23.198;2023-04-04T05:54:21;93472.75;;;17.49;47.94
63097;BME280;49185;42.320;23.198;2023-04-04T05:56:47;93472.22;;;17.17;48.65
63097;BME280;49185;42.320;23.198;2023-04-04T05:59:12;93480.97;;;16.44;53.01
63097;BME280;49185;42.320;23.198;2023-04-04T06:01:38;93486.13;;;18.47;43.94
63097;BME280;49185;42.320;23.198;2023-04-04T06:04:03;93483.28;;;17.06;47.30
63097;BME280;49185;42.320;23.198;2023-04-04T06:06:28;93493.72;;;16.03;50.51
63097;BME280;49185;42.320;23.198;2023-04-04T06:08:54;93490.44;;;16.85;48.70
63097;BME280;49185;42.320;23.198;2023-04-04T06:11:20;93490.94;;;16.52;50.33
63097;BME280;49185;42.320;23.198;2023-04-04T06:13:45;93488.59;;;17.33;48.00
63097;BME280;49185;42.320;23.198;2023-04-04T06:16:10;93495.56;;;17.34;48.72
63097;BME280;49185;42.320;23.198;2023-04-04T06:18:36;93511.53;;;15.59;51.90
63097;BME280;49185;42.320;23.198;2023-04-04T06:21:02;93507.59;;;16.05;51.57
63097;BME280;49185;42.320;23.198;2023-04-04T06:23:27;93505.44;;;14.73;55.77
63097;BME280;49185;42.320;23.198;2023-04-04T06:25:53;93499.22;;;17.29;47.62
63097;BME280;49185;42.320;23.198;2023-04-04T06:28:18;93500.63;;;17.35;47.99
63097;BME280;49185;42.320;23.198;2023-04-04T06:30:44;93514.59;;;14.22;57.31
63097;BME280;49185;42.320;23.198;2023-04-04T06:33:09;93506.28;;;14.10;57.28
63097;BME280;49185;42.320;23.198;2023-04-04T06:35:35;93517.47;;;11.87;65.08
63097;BME280;49185;42.320;23.198;2023-04-04T06:38:00;93529.28;;;11.81;65.77
63097;BME280;49185;42.320;23.198;2023-04-04T06:40:26;93531.88;;;10.84;68.75
63097;BME280;49185;42.320;23.198;2023-04-04T06:42:52;93537.34;;;11.51;67.72
63097;BME280;49185;42.320;23.198;2023-04-04T06:45:17;93533.81;;;11.56;65.85
63097;BME280;49185;42.320;23.198;2023-04-04T06:47:43;93529.56;;;12.22;64.44
63097;BME280;49185;42.320;23.198;2023-04-04T06:50:09;93539.13;;;11.08;68.26
63097;BME280;49185;42.320;23.198;2023-04-04T06:52:35;93541.16;;;12.31;63.23
63097;BME280;49185;42.320;23.198;2023-04-04T06:55:00;93543.50;;;10.93;66.21
63097;BME280;49185;42.320;23.198;2023-04-04T06:57:26;93543.97;;;11.00;67.74
63097;BME280;49185;42.320;23.198;2023-04-04T06:59:51;93541.16;;;11.93;65.19
63097;BME280;49185;42.320;23.198;2023-04-04T07:02:17;93541.19;;;11.40;67.50
63097;BME280;49185;42.320;23.198;2023-04-04T07:04:42;93548.22;;;11.31;67.91
63097;BME280;49185;42.320;23.198;2023-04-04T07:07:08;93545.09;;;11.72;66.05
63097;BME280;49185;42.320;23.198;2023-04-04T07:09:33;93554.50;;;12.50;63.70
63097;BME280;49185;42.320;23.198;2023-04-04T07:11:59;93562.00;;;11.09;66.08
63097;BME280;49185;42.320;23.198;2023-04-04T07:14:24;93548.16;;;12.08;67.17
63097;BME280;49185;42.320;23.198;2023-04-04T07:16:50;93560.81;;;11.20;66.67
63097;BME280;49185;42.320;23.198;2023-04-04T07:19:16;93561.94;;;11.43;67.19
63097;BME280;49185;42.320;23.198;2023-04-04T07:21:41;93556.75;;;12.24;64.62
63097;BME280;49185;42.320;23.198;2023-04-04T07:24:06;93557.31;;;12.40;61.65
63097;BME280;49185;42.320;23.198;2023-04-04T07:26:32;93561.50;;;12.27;61.96
63097;BME280;49185;42.320;23.198;2023-04-04T07:28:57;93559.34;;;12.29;62.80
63097;BME280;49185;42.320;23.198;2023-04-04T07:31:23;93564.47;;;12.45;61.16
63097;BME280;49185;42.320;23.198;2023-04-04T07:33:48;93568.13;;;12.49;61.37
63097;BME280;49185;42.320;23.198;2023-04-04T07:36:13;93573.22;;;12.07;64.42
63097;BME280;49185;42.320;23.198;2023-04-04T07:38:39;93572.94;;;11.85;64.63
63097;BME280;49185;42.320;23.198;2023-04-04T07:41:04;93566.16;;;11.98;63.85
63097;BME280;49185;42.320;23.198;2023-04-04T07:43:30;93568.78;;;11.73;62.28
63097;BME280;49185;42.320;23.198;2023-04-04T07:45:55;93572.31;;;11.69;63.54
63097;BME280;49185;42.320;23.198;2023-04-04T07:48:20;93578.66;;;11.49;63.99
63097;BME280;49185;42.320;23.198;2023-04-04T07:50:46;93571.19;;;11.21;66.21
63097;BME280;49185;42.320;23.198;2023-04-04T07:53:12;93579.91;;;11.03;66.78
63097;BME280;49185;42.320;23.198;2023-04-04T07:55:37;93575.31;;;11.09;66.18
63097;BME280;49185;42.320;23.198;2023-04-04T07:58:02;93577.13;;;11.13;67.29
63097;BME280;49185;42.320;23.198;2023-04-04T08:00:28;93586.69;;;10.80;68.71
63097;BME280;49185;42.320;23.198;2023-04-04T08:02:54;93578.75;;;11.09;68.78
63097;BME280;49185;42.320;23.198;2023-04-04T08:05:21;93581.25;;;11.30;68.10
63097;BME280;49185;42.320;23.198;2023-04-04T08:07:46;93578.66;;;11.49;67.40
63097;BME280;49185;42.320;23.198;2023-04-04T08:10:12;93578.00;;;11.62;68.58
63097;BME280;49185;42.320;23.198;2023-04-04T08:12:37;93577.53;;;11.55;68.24
63097;BME280;49185;42.320;23.198;2023-04-04T08:15:03;93575.59;;;11.61;67.15
63097;BME280;49185;42.320;23.198;2023-04-04T08:17:29;93579.88;;;11.32;67.17
63097;BME280;49185;42.320;23.198;2023-04-04T08:19:54;93578.13;;;11.23;67.25
63097;BME280;49185;42.320;23.198;2023-04-04T08:22:20;93574.38;;;10.94;68.76
63097;BME280;49185;42.320;23.198;2023-04-04T08:24:45;93580.28;;;10.86;69.02
63097;BME280;49185;42.320;23.198;2023-04-04T08:27:11;93576.63;;;10.77;70.91
63097;BME280;49185;42.320;23.198;2023-04-04T08:29:36;93576.19;;;10.99;71.47
63097;BME280;49185;42.320;23.198;2023-04-04T08:32:02;93572.25;;;10.91;70.90
63097;BME280;49185;42.320;23.198;2023-04-04T08:34:28;93576.16;;;10.70;71.18
63097;BME280;49185;42.320;23.198;2023-04-04T08:36:54;93585.16;;;10.74;71.08
63097;BME280;49185;42.320;23.198;2023-04-04T08:39:19;93584.03;;;10.45;69.91
63097;BME280;49185;42.320;23.198;2023-04-04T08:41:45;93576.59;;;9.82;71.24
63097;BME280;49185;42.320;23.198;2023-04-04T08:44:19;93576.88;;;10.41;71.57
63097;BME280;49185;42.320;23.198;2023-04-04T08:46:48;93572.44;;;10.21;70.86
63097;BME280;49185;42.320;23.198;2023-04-04T08:49:15;93583.81;;;10.37;70.61
63097;BME280;49185;42.320;23.198;2023-04-04T08:51:43;93592.06;;;10.30;71.73
63097;BME280;49185;42.320;23.198;2023-04-04T08:54:11;93593.13;;;10.39;69.84
63097;BME280;49185;42.320;23.198;2023-04-04T08:56:37;93589.50;;;10.15;72.07
63097;BME280;49185;42.320;23.198;2023-04-04T08:59:03;93597.13;;;10.32;71.52
63097;BME280;49185;42.320;23.198;2023-04-04T09:01:28;93602.09;;;9.83;71.30
63097;BME280;49185;42.320;23.198;2023-04-04T09:03:55;93597.16;;;9.56;71.49
63097;BME280;49185;42.320;23.198;2023-04-04T09:06:22;93600.00;;;9.80;71.56
63097;BME280;49185;42.320;23.198;2023-04-04T09:08:48;93598.34;;;9.89;71.44
63097;BME280;49185;42.320;23.198;2023-04-04T09:11:15;93590.97;;;9.81;70.40
63097;BME280;49185;42.320;23.198;2023-04-04T09:13:44;93600.50;;;9.87;71.09
63097;BME280;49185;42.320;23.198;2023-04-04T09:16:09;93588.22;;;10.02;69.66
63097;BME280;49185;42.320;23.198;2023-04-04T09:18:35;93597.44;;;9.44;70.92
63097;BME280;49185;42.320;23.198;2023-04-04T09:21:08;93605.66;;;9.43;71.52
63097;BME280;49185;42.320;23.198;2023-04-04T09:23:33;93597.84;;;9.82;70.24
63097;BME280;49185;42.320;23.198;2023-04-04T09:25:58;93602.88;;;9.94;69.76
63097;BME280;49185;42.320;23.198;2023-04-04T09:28:24;93606.16;;;9.60;70.18
63097;BME280;49185;42.320;23.198;2023-04-04T09:30:51;93604.13;;;9.21;70.53
63097;BME280;49185;42.320;23.198;2023-04-04T09:33:18;93611.28;;;8.64;71.35
63097;BME280;49185;42.320;23.198;2023-04-04T09:36:06;93614.38;;;8.35;71.40
63097;BME280;49185;42.320;23.198;2023-04-04T09:38:35;93604.25;;;8.07;71.52
63097;BME280;49185;42.320;23.198;2023-04-04T09:41:01;93607.78;;;8.38;70.70
63097;BME280;49185;42.320;23.198;2023-04-04T09:43:29;93597.94;;;8.28;70.83
63097;BME280;49185;42.320;23.198;2023-04-04T09:45:55;93610.56;;;7.95;72.81
63097;BME280;49185;42.320;23.198;2023-04-04T09:48:31;93613.44;;;7.89;73.36
63097;BME280;49185;42.320;23.198;2023-04-04T09:50:57;93595.69;;;7.84;73.70
63097;BME280;49185;42.320;23.198;2023-04-04T09:53:23;93609.88;;;7.57;72.81
63097;BME280;49185;42.320;23.198;2023-04-04T09:55:50;93614.66;;;7.60;72.56
63097;BME280;49185;42.320;23.198;2023-04-04T09:58:18;93611.69;;;7.52;73.21
63097;BME280;49185;42.320;23.198;2023-04-04T10:00:47;93626.50;;;7.48;73.21
63097;BME280;49185;42.320;23.198;2023-04-04T10:03:14;93620.31;;;7.32;74.38
63097;BME280;49185;42.320;23.198;2023-04-04T10:05:40;93625.25;;;7.18;73.37
63097;BME280;49185;42.320;23.198;2023-04-04T10:08:32;93642.03;;;7.34;74.19
63097;BME280;49185;42.320;23.198;2023-04-04T10:11:01;93638.75;;;7.21;74.19
63097;BME280;49185;42.320;23.198;2023-04-04T10:13:31;93637.97;;;7.21;72.98
63097;BME280;49185;42.320;23.198;2023-04-04T10:15:58;93649.59;;;7.20;74.07
63097;BME280;49185;42.320;23.198;2023-04-04T10:18:33;93652.91;;;7.37;73.37
63097;BME280;49185;42.320;23.198;2023-04-04T10:21:01;93656.56;;;7.31;72.59
63097;BME280;49185;42.320;23.198;2023-04-04T10:23:27;93663.84;;;7.14;73.79
63097;BME280;49185;42.320;23.198;2023-04-04T10:25:54;93666.50;;;7.14;72.79
63097;BME280;49185;42.320;23.198;2023-04-04T10:28:19;93676.09;;;6.93;73.56
63097;BME280;49185;42.320;23.198;2023-04-04T10:36:02;93684.25;;;6.86;72.88
63097;BME280;49185;42.320;23.198;2023-04-04T10:38:31;93682.91;;;6.83;73.04
63097;BME280;49185;42.320;23.198;2023-04-04T10:41:01;93700.66;;;6.88;72.49
63097;BME280;49185;42.320;23.198;2023-04-04T10:43:31;93698.78;;;6.83;72.53
63097;BME280;49185;42.320;23.198;2023-04-04T10:46:07;93688.69;;;6.80;72.72
63097;BME280;49185;42.320;23.198;2023-04-04T10:48:35;93710.56;;;6.49;73.03
63097;BME280;49185;42.320;23.198;2023-04-04T10:51:03;93707.44;;;6.52;73.40
63097;BME280;49185;42.320;23.198;2023-04-04T10:53:28;93695.75;;;6.47;73.65
63097;BME280;49185;42.320;23.198;2023-04-04T10:55:55;93711.50;;;6.37;73.87
63097;BME280;49185;42.320;23.198;2023-04-04T10:58:20;93712.91;;;6.23;73.17
63097;BME280;49185;42.320;23.198;2023-04-04T11:00:51;93717.59;;;6.16;73.39
63097;BME280;49185;42.320;23.198;2023-04-04T11:03:16;93723.31;;;6.07;73.99
63097;BME280;49185;42.320;23.198;2023-04-04T11:05:42;93729.63;;;6.06;72.54
63097;BME280;49185;42.320;23.198;2023-04-04T11:08:09;93721.81;;;6.39;73.76
63097;BME280;49185;42.320;23.198;2023-04-04T11:10:36;93732.31;;;6.56;72.77
63097;BME280;49185;42.320;23.198;2023-04-04T11:13:10;93723.06;;;6.58;71.88
63097;BME280;49185;42.320;23.198;2023-04-04T11:18:21;93743.78;;;6.44;71.12
63097;BME280;49185;42.320;23.198;2023-04-04T11:20:47;93738.44;;;6.61;72.48
63097;BME280;49185;42.320;23.198;2023-04-04T11:23:15;93737.97;;;6.42;70.51
63097;BME280;49185;42.320;23.198;2023-04-04T11:25:49;93741.53;;;6.31;71.33
63097;BME280;49185;42.320;23.198;2023-04-04T11:31:32;93760.59;;;6.33;72.09
63097;BME280;49185;42.320;23.198;2023-04-04T11:39:02;93761.44;;;6.17;72.96
63097;BME280;49185;42.320;23.198;2023-04-04T11:44:26;93772.69;;;5.90;73.19
63097;BME280;49185;42.320;23.198;2023-04-04T11:47:08;93776.19;;;5.79;73.11
63097;BME280;49185;42.320;23.198;2023-04-04T11:49:45;93764.19;;;6.05;73.84
63097;BME280;49185;42.320;23.198;2023-04-04T11:52:12;93775.25;;;5.85;72.79
63097;BME280;49185;42.320;23.198;2023-04-04T11:54:39;93774.69;;;6.00;74.06
63097;BME280;49185;42.320;23.198;2023-04-04T11:57:06;93772.84;;;6.00;72.78
63097;BME280;49185;42.320;23.198;2023-04-04T11:59:32;93776.34;;;5.89;73.48
63097;BME280;49185;42.320;23.198;2023-04-04T12:01:58;93779.09;;;5.60;74.11
63097;BME280;49185;42.320;23.198;2023-04-04T12:04:24;93779.09;;;5.60;75.51
63097;BME280;49185;42.320;23.198;2023-04-04T12:06:52;93779.19;;;5.65;75.18
63097;BME280;49185;42.320;23.198;2023-04-04T12:09:19;93783.97;;;5.51;76.71
63097;BME280;49185;42.320;23.198;2023-04-04T12:11:46;93784.69;;;5.47;77.11
63097;BME280;49185;42.320;23.198;2023-04-04T12:14:19;93782.28;;;5.28;77.27
63097;BME280;49185;42.320;23.198;2023-04-04T12:16:50;93792.59;;;5.30;78.07
63097;BME280;49185;42.320;23.198;2023-04-04T12:19:16;93794.69;;;5.45;78.79
63097;BME280;49185;42.320;23.198;2023-04-04T12:21:42;93790.69;;;5.59;77.91
63097;BME280;49185;42.320;23.198;2023-04-04T12:24:08;93791.50;;;5.60;77.15
63097;BME280;49185;42.320;23.198;2023-04-04T12:26:36;93801.56;;;5.46;78.15
63097;BME280;49185;42.320;23.198;2023-04-04T12:29:02;93794.03;;;5.38;79.48
63097;BME280;49185;42.320;23.198;2023-04-04T12:31:28;93805.16;;;5.23;81.62
63097;BME280;49185;42.320;23.198;2023-04-04T12:33:54;93807.06;;;5.27;83.38
63097;BME280;49185;42.320;23.198;2023-04-04T12:36:20;93805.63;;;5.20;84.13
63097;BME280;49185;42.320;23.198;2023-04-04T12:38:59;93807.38;;;5.31;83.14
63097;BME280;49185;42.320;23.198;2023-04-04T12:41:25;93811.75;;;5.08;84.30
63097;BME280;49185;42.320;23.198;2023-04-04T12:43:59;93820.66;;;5.19;83.76
63097;BME280;49185;42.320;23.198;2023-04-04T12:46:34;93813.19;;;5.16;82.79
63097;BME280;49185;42.320;23.198;2023-04-04T12:48:59;93823.09;;;5.09;83.57
63097;BME280;49185;42.320;23.198;2023-04-04T12:51:32;93822.31;;;5.08;83.65
63097;BME280;49185;42.320;23.198;2023-04-04T12:53:57;93826.81;;;4.96;83.64
63097;BME280;49185;42.320;23.198;2023-04-04T12:56:25;93827.97;;;4.88;81.82
63097;BME280;49185;42.320;23.198;2023-04-04T12:58:50;93828.09;;;4.93;84.01
63097;BME280;49185;42.320;23.198;2023-04-04T13:01:16;93826.66;;;5.03;83.75
63097;BME280;49185;42.320;23.198;2023-04-04T13:03:42;93831.78;;;4.92;82.24
63097;BME280;49185;42.320;23.198;2023-04-04T13:06:16;93830.38;;;4.90;83.44
63097;BME280;49185;42.320;23.198;2023-04-04T13:08:52;93837.72;;;4.88;84.05
63097;BME280;49185;42.320;23.198;2023-04-04T13:11:18;93829.84;;;4.76;82.11
63097;BME280;49185;42.320;23.198;2023-04-04T13:13:43;93827.56;;;4.80;84.11
63097;BME280;49185;42.320;23.198;2023-04-04T13:16:28;93831.56;;;4.82;83.54